sensor_id;sensor_type;location;lat;lon;timestamp;P1;durP1;ratioP1;P2;durP2;ratioP2
23565;SDS011;22140;48.988;8.544;2023-02-04T00:02:27;9.97;;;3.40;;
23565;SDS011;22140;48.988;8.544;2023-02-04T00:07:29;9.38;;;3.35;;
23565;SDS011;22140;48.988;8.544;2023-02-04T00:12:30;8.60;;;3.43;;
23565;SDS011;22140;48.988;8.544;2023-02-04T00:17:32;10.52;;;3.40;;
23565;SDS011;22140;48.988;8.544;2023-02-04T00:22:33;9.05;;;3.78;;
23565;SDS011;22140;48.988;8.544;2023-02-04T00:27:34;8.53;;;3.57;;
23565;SDS011;22140;48.988;8.544;2023-02-04T00:32:35;9.55;;;3.70;;
23565;SDS011;22140;48.988;8.544;2023-02-04T00:37:37;10.60;;;3.67;;
23565;SDS011;22140;48.988;8.544;2023-02-04T00:42:38;9.73;;;3.75;;
23565;SDS011;22140;48.988;8.544;2023-02-04T00:47:39;9.70;;;3.50;;
23565;SDS011;22140;48.988;8.544;2023-02-04T00:52:41;10.40;;;3.87;;
23565;SDS011;22140;48.988;8.544;2023-02-04T00:57:43;9.85;;;3.72;;
23565;SDS011;22140;48.988;8.544;2023-02-04T01:02:44;9.23;;;3.40;;
23565;SDS011;22140;48.988;8.544;2023-02-04T01:07:45;9.75;;;3.85;;
23565;SDS011;22140;48.988;8.544;2023-02-04T01:12:47;10.75;;;3.72;;
23565;SDS011;22140;48.988;8.544;2023-02-04T01:17:48;10.37;;;4.17;;
23565;SDS011;22140;48.988;8.544;2023-02-04T01:22:50;8.48;;;3.42;;
23565;SDS011;22140;48.988;8.544;2023-02-04T01:27:51;7.73;;;3.13;;
23565;SDS011;22140;48.988;8.544;2023-02-04T01:32:52;8.88;;;3.60;;
23565;SDS011;22140;48.988;8.544;2023-02-04T01:37:54;10.65;;;2.97;;
23565;SDS011;22140;48.988;8.544;2023-02-04T01:42:56;9.20;;;3.40;;
23565;SDS011;22140;48.988;8.544;2023-02-04T01:47:57;8.27;;;3.42;;
23565;SDS011;22140;48.988;8.544;2023-02-04T01:52:59;8.17;;;3.40;;
23565;SDS011;22140;48.988;8.544;2023-02-04T01:58:00;7.38;;;3.00;;
23565;SDS011;22140;48.988;8.544;2023-02-04T02:03:03;8.60;;;3.33;;
23565;SDS011;22140;48.988;8.544;2023-02-04T02:08:05;9.87;;;3.40;;
23565;SDS011;22140;48.988;8.544;2023-02-04T02:13:07;9.00;;;3.85;;
23565;SDS011;22140;48.988;8.544;2023-02-04T02:18:10;8.07;;;3.30;;
23565;SDS011;22140;48.988;8.544;2023-02-04T02:23:19;6.32;;;2.13;;
23565;SDS011;22140;48.988;8.544;2023-02-04T02:28:22;6.88;;;2.40;;
23565;SDS011;22140;48.988;8.544;2023-02-04T02:33:24;5.23;;;1.80;;
23565;SDS011;22140;48.988;8.544;2023-02-04T02:38:26;6.43;;;2.15;;
23565;SDS011;22140;48.988;8.544;2023-02-04T02:43:27;7.23;;;2.47;;
23565;SDS011;22140;48.988;8.544;2023-02-04T02:48:29;6.38;;;2.30;;
23565;SDS011;22140;48.988;8.544;2023-02-04T02:53:30;7.63;;;2.30;;
23565;SDS011;22140;48.988;8.544;2023-02-04T02:58:33;6.87;;;1.87;;
23565;SDS011;22140;48.988;8.544;2023-02-04T03:03:35;6.10;;;1.83;;
23565;SDS011;22140;48.988;8.544;2023-02-04T03:08:37;8.30;;;2.67;;
23565;SDS011;22140;48.988;8.544;2023-02-04T03:13:38;6.82;;;2.60;;
23565;SDS011;22140;48.988;8.544;2023-02-04T03:18:40;7.55;;;2.90;;
23565;SDS011;22140;48.988;8.544;2023-02-04T03:23:42;7.57;;;2.60;;
23565;SDS011;22140;48.988;8.544;2023-02-04T03:28:43;7.50;;;2.80;;
23565;SDS011;22140;48.988;8.544;2023-02-04T03:33:44;7.40;;;2.33;;
23565;SDS011;22140;48.988;8.544;2023-02-04T03:38:46;8.95;;;2.60;;
23565;SDS011;22140;48.988;8.544;2023-02-04T03:43:47;8.80;;;2.00;;
23565;SDS011;22140;48.988;8.544;2023-02-04T03:48:48;12.27;;;2.20;;
23565;SDS011;22140;48.988;8.544;2023-02-04T03:53:50;9.18;;;2.25;;
23565;SDS011;22140;48.988;8.544;2023-02-04T03:58:51;8.23;;;2.20;;
23565;SDS011;22140;48.988;8.544;2023-02-04T04:03:52;9.32;;;2.65;;
23565;SDS011;22140;48.988;8.544;2023-02-04T04:08:53;7.70;;;2.08;;
23565;SDS011;22140;48.988;8.544;2023-02-04T04:13:55;12.30;;;2.30;;
23565;SDS011;22140;48.988;8.544;2023-02-04T04:18:56;10.40;;;2.50;;
23565;SDS011;22140;48.988;8.544;2023-02-04T04:23:57;9.67;;;2.17;;
23565;SDS011;22140;48.988;8.544;2023-02-04T04:28:59;10.15;;;2.67;;
23565;SDS011;22140;48.988;8.544;2023-02-04T04:34:00;11.00;;;2.40;;
23565;SDS011;22140;48.988;8.544;2023-02-04T04:39:02;8.90;;;2.27;;
23565;SDS011;22140;48.988;8.544;2023-02-04T04:44:03;11.07;;;2.35;;
23565;SDS011;22140;48.988;8.544;2023-02-04T04:49:05;8.83;;;2.20;;
23565;SDS011;22140;48.988;8.544;2023-02-04T04:54:06;9.95;;;2.17;;
23565;SDS011;22140;48.988;8.544;2023-02-04T04:59:08;11.38;;;2.30;;
23565;SDS011;22140;48.988;8.544;2023-02-04T05:04:10;12.47;;;1.97;;
23565;SDS011;22140;48.988;8.544;2023-02-04T05:09:11;9.98;;;2.30;;
23565;SDS011;22140;48.988;8.544;2023-02-04T05:14:12;8.87;;;2.20;;
23565;SDS011;22140;48.988;8.544;2023-02-04T05:19:13;6.90;;;2.03;;
23565;SDS011;22140;48.988;8.544;2023-02-04T05:24:15;12.05;;;5.68;;
23565;SDS011;22140;48.988;8.544;2023-02-04T05:29:16;12.77;;;6.00;;
23565;SDS011;22140;48.988;8.544;2023-02-04T05:34:17;10.32;;;2.85;;
23565;SDS011;22140;48.988;8.544;2023-02-04T05:39:19;10.73;;;2.57;;
23565;SDS011;22140;48.988;8.544;2023-02-04T05:44:20;9.52;;;2.72;;
23565;SDS011;22140;48.988;8.544;2023-02-04T05:49:24;18.60;;;3.00;;
23565;SDS011;22140;48.988;8.544;2023-02-04T05:54:25;11.30;;;2.77;;
23565;SDS011;22140;48.988;8.544;2023-02-04T05:59:26;9.95;;;3.03;;
23565;SDS011;22140;48.988;8.544;2023-02-04T06:04:31;11.47;;;3.27;;
23565;SDS011;22140;48.988;8.544;2023-02-04T06:09:32;12.45;;;3.47;;
23565;SDS011;22140;48.988;8.544;2023-02-04T06:14:33;12.52;;;3.70;;
23565;SDS011;22140;48.988;8.544;2023-02-04T06:19:35;9.00;;;3.07;;
23565;SDS011;22140;48.988;8.544;2023-02-04T06:24:36;9.85;;;3.47;;
23565;SDS011;22140;48.988;8.544;2023-02-04T06:29:37;12.33;;;3.70;;
23565;SDS011;22140;48.988;8.544;2023-02-04T06:34:38;10.85;;;3.60;;
23565;SDS011;22140;48.988;8.544;2023-02-04T06:39:40;16.70;;;4.00;;
23565;SDS011;22140;48.988;8.544;2023-02-04T06:44:41;11.93;;;3.03;;
23565;SDS011;22140;48.988;8.544;2023-02-04T06:49:42;11.02;;;3.50;;
23565;SDS011;22140;48.988;8.544;2023-02-04T06:54:44;11.47;;;3.30;;
23565;SDS011;22140;48.988;8.544;2023-02-04T06:59:45;12.55;;;3.35;;
23565;SDS011;22140;48.988;8.544;2023-02-04T07:04:47;13.73;;;3.78;;
23565;SDS011;22140;48.988;8.544;2023-02-04T07:09:49;16.53;;;3.67;;
23565;SDS011;22140;48.988;8.544;2023-02-04T07:14:50;13.48;;;3.72;;
23565;SDS011;22140;48.988;8.544;2023-02-04T07:19:51;12.87;;;3.90;;
23565;SDS011;22140;48.988;8.544;2023-02-04T07:24:53;12.82;;;3.50;;
23565;SDS011;22140;48.988;8.544;2023-02-04T07:29:54;12.63;;;3.42;;
23565;SDS011;22140;48.988;8.544;2023-02-04T07:34:55;13.70;;;3.53;;
23565;SDS011;22140;48.988;8.544;2023-02-04T07:39:56;19.60;;;8.82;;
23565;SDS011;22140;48.988;8.544;2023-02-04T07:44:58;12.93;;;4.70;;
23565;SDS011;22140;48.988;8.544;2023-02-04T07:49:59;16.45;;;4.43;;
23565;SDS011;22140;48.988;8.544;2023-02-04T07:55:00;15.98;;;4.50;;
23565;SDS011;22140;48.988;8.544;2023-02-04T08:00:02;12.33;;;3.87;;
23565;SDS011;22140;48.988;8.544;2023-02-04T08:05:03;11.18;;;4.03;;
23565;SDS011;22140;48.988;8.544;2023-02-04T08:10:05;13.17;;;3.40;;
23565;SDS011;22140;48.988;8.544;2023-02-04T08:15:07;13.60;;;4.80;;
23565;SDS011;22140;48.988;8.544;2023-02-04T08:20:09;14.35;;;5.45;;
23565;SDS011;22140;48.988;8.544;2023-02-04T08:25:11;12.33;;;4.50;;
23565;SDS011;22140;48.988;8.544;2023-02-04T08:30:12;12.95;;;4.55;;
23565;SDS011;22140;48.988;8.544;2023-02-04T08:35:13;14.30;;;4.30;;
23565;SDS011;22140;48.988;8.544;2023-02-04T08:40:15;13.95;;;5.25;;
23565;SDS011;22140;48.988;8.544;2023-02-04T08:45:16;13.55;;;4.78;;
23565;SDS011;22140;48.988;8.544;2023-02-04T08:50:17;16.40;;;5.00;;
23565;SDS011;22140;48.988;8.544;2023-02-04T08:55:19;25.17;;;9.30;;
23565;SDS011;22140;48.988;8.544;2023-02-04T09:00:20;20.77;;;9.93;;
23565;SDS011;22140;48.988;8.544;2023-02-04T09:05:21;13.85;;;5.65;;
23565;SDS011;22140;48.988;8.544;2023-02-04T09:10:23;13.15;;;2.90;;
23565;SDS011;22140;48.988;8.544;2023-02-04T09:15:24;11.67;;;3.77;;
23565;SDS011;22140;48.988;8.544;2023-02-04T09:20:25;16.80;;;3.78;;
23565;SDS011;22140;48.988;8.544;2023-02-04T09:25:27;10.53;;;3.00;;
23565;SDS011;22140;48.988;8.544;2023-02-04T09:30:28;12.77;;;2.78;;
23565;SDS011;22140;48.988;8.544;2023-02-04T09:35:30;13.73;;;3.00;;
23565;SDS011;22140;48.988;8.544;2023-02-04T09:40:36;11.33;;;3.60;;
23565;SDS011;22140;48.988;8.544;2023-02-04T09:45:40;10.15;;;3.47;;
23565;SDS011;22140;48.988;8.544;2023-02-04T09:50:42;11.77;;;3.23;;
23565;SDS011;22140;48.988;8.544;2023-02-04T09:55:44;8.68;;;2.50;;
23565;SDS011;22140;48.988;8.544;2023-02-04T10:00:47;12.68;;;2.60;;
23565;SDS011;22140;48.988;8.544;2023-02-04T10:05:49;14.27;;;3.50;;
23565;SDS011;22140;48.988;8.544;2023-02-04T10:10:51;15.23;;;2.95;;
23565;SDS011;22140;48.988;8.544;2023-02-04T10:15:52;11.67;;;2.80;;
23565;SDS011;22140;48.988;8.544;2023-02-04T10:20:55;16.83;;;3.15;;
23565;SDS011;22140;48.988;8.544;2023-02-04T10:25:58;13.88;;;3.08;;
23565;SDS011;22140;48.988;8.544;2023-02-04T10:30:59;14.90;;;3.17;;
23565;SDS011;22140;48.988;8.544;2023-02-04T10:36:02;16.67;;;3.80;;
23565;SDS011;22140;48.988;8.544;2023-02-04T10:41:04;16.80;;;3.20;;
23565;SDS011;22140;48.988;8.544;2023-02-04T10:46:06;16.80;;;2.90;;
23565;SDS011;22140;48.988;8.544;2023-02-04T10:51:08;14.75;;;2.65;;
23565;SDS011;22140;48.988;8.544;2023-02-04T10:56:16;15.70;;;2.97;;
23565;SDS011;22140;48.988;8.544;2023-02-04T11:01:18;18.95;;;3.17;;
23565;SDS011;22140;48.988;8.544;2023-02-04T11:06:20;20.67;;;3.43;;
23565;SDS011;22140;48.988;8.544;2023-02-04T11:11:23;10.70;;;2.47;;
23565;SDS011;22140;48.988;8.544;2023-02-04T11:16:26;16.20;;;2.90;;
23565;SDS011;22140;48.988;8.544;2023-02-04T11:26:39;15.30;;;2.85;;
23565;SDS011;22140;48.988;8.544;2023-02-04T11:32:05;17.10;;;3.30;;
23565;SDS011;22140;48.988;8.544;2023-02-04T11:37:12;18.55;;;3.95;;
23565;SDS011;22140;48.988;8.544;2023-02-04T11:42:21;15.05;;;3.38;;
23565;SDS011;22140;48.988;8.544;2023-02-04T11:47:23;14.03;;;4.23;;
23565;SDS011;22140;48.988;8.544;2023-02-04T11:52:26;17.58;;;4.65;;
23565;SDS011;22140;48.988;8.544;2023-02-04T11:57:27;16.77;;;3.97;;
23565;SDS011;22140;48.988;8.544;2023-02-04T12:02:28;18.10;;;3.63;;
23565;SDS011;22140;48.988;8.544;2023-02-04T12:07:41;16.70;;;3.28;;
23565;SDS011;22140;48.988;8.544;2023-02-04T12:12:44;17.37;;;3.27;;
23565;SDS011;22140;48.988;8.544;2023-02-04T12:18:04;16.40;;;2.42;;
23565;SDS011;22140;48.988;8.544;2023-02-04T12:23:07;9.67;;;2.63;;
23565;SDS011;22140;48.988;8.544;2023-02-04T12:28:11;11.75;;;2.08;;
23565;SDS011;22140;48.988;8.544;2023-02-04T12:33:13;11.13;;;2.17;;
23565;SDS011;22140;48.988;8.544;2023-02-04T12:38:15;9.03;;;1.90;;
23565;SDS011;22140;48.988;8.544;2023-02-04T12:43:16;12.07;;;1.75;;
23565;SDS011;22140;48.988;8.544;2023-02-04T12:48:18;12.87;;;2.00;;
23565;SDS011;22140;48.988;8.544;2023-02-04T12:53:19;15.95;;;2.58;;
23565;SDS011;22140;48.988;8.544;2023-02-04T12:58:20;17.38;;;3.20;;
23565;SDS011;22140;48.988;8.544;2023-02-04T13:03:21;17.60;;;2.70;;
23565;SDS011;22140;48.988;8.544;2023-02-04T13:08:24;17.52;;;4.05;;
23565;SDS011;22140;48.988;8.544;2023-02-04T13:13:25;12.83;;;5.10;;
23565;SDS011;22140;48.988;8.544;2023-02-04T13:18:27;16.83;;;5.00;;
23565;SDS011;22140;48.988;8.544;2023-02-04T13:23:30;20.40;;;6.00;;
23565;SDS011;22140;48.988;8.544;2023-02-04T13:28:31;16.47;;;4.60;;
23565;SDS011;22140;48.988;8.544;2023-02-04T13:33:33;14.65;;;3.67;;
23565;SDS011;22140;48.988;8.544;2023-02-04T13:38:34;15.73;;;2.70;;
23565;SDS011;22140;48.988;8.544;2023-02-04T13:43:36;18.70;;;3.22;;
23565;SDS011;22140;48.988;8.544;2023-02-04T13:48:37;14.77;;;3.38;;
23565;SDS011;22140;48.988;8.544;2023-02-04T13:53:39;11.67;;;2.33;;
23565;SDS011;22140;48.988;8.544;2023-02-04T13:58:40;12.00;;;2.55;;
23565;SDS011;22140;48.988;8.544;2023-02-04T14:03:44;11.13;;;2.73;;
23565;SDS011;22140;48.988;8.544;2023-02-04T14:08:45;8.10;;;1.77;;
23565;SDS011;22140;48.988;8.544;2023-02-04T14:13:47;9.77;;;1.95;;
23565;SDS011;22140;48.988;8.544;2023-02-04T14:18:50;15.13;;;3.57;;
23565;SDS011;22140;48.988;8.544;2023-02-04T14:23:52;14.52;;;3.28;;
23565;SDS011;22140;48.988;8.544;2023-02-04T14:28:53;14.47;;;2.73;;
23565;SDS011;22140;48.988;8.544;2023-02-04T14:33:54;14.30;;;2.45;;
23565;SDS011;22140;48.988;8.544;2023-02-04T14:38:56;15.40;;;2.55;;
23565;SDS011;22140;48.988;8.544;2023-02-04T14:43:57;11.33;;;2.20;;
23565;SDS011;22140;48.988;8.544;2023-02-04T14:48:58;17.15;;;3.40;;
23565;SDS011;22140;48.988;8.544;2023-02-04T14:54:00;17.70;;;3.50;;
23565;SDS011;22140;48.988;8.544;2023-02-04T14:59:02;12.65;;;2.80;;
23565;SDS011;22140;48.988;8.544;2023-02-04T15:04:04;16.55;;;2.30;;
23565;SDS011;22140;48.988;8.544;2023-02-04T15:09:07;12.40;;;3.50;;
23565;SDS011;22140;48.988;8.544;2023-02-04T15:14:09;17.63;;;4.22;;
23565;SDS011;22140;48.988;8.544;2023-02-04T15:19:10;18.90;;;3.50;;
23565;SDS011;22140;48.988;8.544;2023-02-04T15:24:11;19.25;;;4.45;;
23565;SDS011;22140;48.988;8.544;2023-02-04T15:29:13;15.23;;;3.13;;
23565;SDS011;22140;48.988;8.544;2023-02-04T15:34:14;12.87;;;3.43;;
23565;SDS011;22140;48.988;8.544;2023-02-04T15:39:15;15.00;;;3.50;;
23565;SDS011;22140;48.988;8.544;2023-02-04T15:44:17;16.57;;;4.17;;
23565;SDS011;22140;48.988;8.544;2023-02-04T15:49:18;15.80;;;3.25;;
23565;SDS011;22140;48.988;8.544;2023-02-04T15:54:19;15.35;;;3.72;;
23565;SDS011;22140;48.988;8.544;2023-02-04T15:59:21;17.83;;;3.63;;
23565;SDS011;22140;48.988;8.544;2023-02-04T16:04:22;9.02;;;2.50;;
23565;SDS011;22140;48.988;8.544;2023-02-04T16:09:23;13.43;;;2.63;;
23565;SDS011;22140;48.988;8.544;2023-02-04T16:14:25;16.98;;;2.78;;
23565;SDS011;22140;48.988;8.544;2023-02-04T16:19:26;19.95;;;5.70;;
23565;SDS011;22140;48.988;8.544;2023-02-04T16:24:27;22.73;;;6.87;;
23565;SDS011;22140;48.988;8.544;2023-02-04T16:29:29;23.20;;;8.55;;
23565;SDS011;22140;48.988;8.544;2023-02-04T16:34:30;25.67;;;7.57;;
23565;SDS011;22140;48.988;8.544;2023-02-04T16:39:31;23.10;;;6.70;;
23565;SDS011;22140;48.988;8.544;2023-02-04T16:44:33;17.60;;;5.43;;
23565;SDS011;22140;48.988;8.544;2023-02-04T16:49:35;18.37;;;4.17;;
23565;SDS011;22140;48.988;8.544;2023-02-04T16:54:36;22.63;;;4.80;;
23565;SDS011;22140;48.988;8.544;2023-02-04T16:59:37;23.73;;;6.50;;
23565;SDS011;22140;48.988;8.544;2023-02-04T17:04:39;19.20;;;7.28;;
23565;SDS011;22140;48.988;8.544;2023-02-04T17:09:40;20.30;;;6.13;;
23565;SDS011;22140;48.988;8.544;2023-02-04T17:14:42;21.40;;;9.07;;
23565;SDS011;22140;48.988;8.544;2023-02-04T17:19:43;17.85;;;5.93;;
23565;SDS011;22140;48.988;8.544;2023-02-04T17:24:44;22.43;;;9.90;;
23565;SDS011;22140;48.988;8.544;2023-02-04T17:29:46;29.27;;;11.98;;
23565;SDS011;22140;48.988;8.544;2023-02-04T17:34:47;41.35;;;13.98;;
23565;SDS011;22140;48.988;8.544;2023-02-04T17:39:50;67.57;;;20.43;;
23565;SDS011;22140;48.988;8.544;2023-02-04T17:44:52;38.95;;;15.27;;
23565;SDS011;22140;48.988;8.544;2023-02-04T17:49:53;25.40;;;9.43;;
23565;SDS011;22140;48.988;8.544;2023-02-04T17:54:54;24.55;;;8.40;;
23565;SDS011;22140;48.988;8.544;2023-02-04T17:59:56;30.08;;;10.20;;
23565;SDS011;22140;48.988;8.544;2023-02-04T18:05:04;33.90;;;10.50;;
23565;SDS011;22140;48.988;8.544;2023-02-04T18:10:09;21.98;;;6.78;;
23565;SDS011;22140;48.988;8.544;2023-02-04T18:15:14;21.13;;;6.57;;
23565;SDS011;22140;48.988;8.544;2023-02-04T18:20:20;30.05;;;9.43;;
23565;SDS011;22140;48.988;8.544;2023-02-04T18:25:22;31.25;;;10.20;;
23565;SDS011;22140;48.988;8.544;2023-02-04T18:30:24;21.90;;;7.60;;
23565;SDS011;22140;48.988;8.544;2023-02-04T18:35:35;31.38;;;8.45;;
23565;SDS011;22140;48.988;8.544;2023-02-04T18:40:37;25.70;;;10.07;;
23565;SDS011;22140;48.988;8.544;2023-02-04T18:45:41;21.73;;;7.47;;
23565;SDS011;22140;48.988;8.544;2023-02-04T18:50:43;22.77;;;9.40;;
23565;SDS011;22140;48.988;8.544;2023-02-04T18:55:46;24.67;;;11.17;;
23565;SDS011;22140;48.988;8.544;2023-02-04T19:00:49;51.70;;;18.25;;
23565;SDS011;22140;48.988;8.544;2023-02-04T19:05:52;27.50;;;12.13;;
23565;SDS011;22140;48.988;8.544;2023-02-04T19:10:54;28.92;;;10.80;;
23565;SDS011;22140;48.988;8.544;2023-02-04T19:16:00;38.40;;;14.15;;
23565;SDS011;22140;48.988;8.544;2023-02-04T19:26:24;34.55;;;13.60;;
23565;SDS011;22140;48.988;8.544;2023-02-04T19:31:31;36.60;;;13.47;;
23565;SDS011;22140;48.988;8.544;2023-02-04T19:36:34;28.80;;;11.60;;
23565;SDS011;22140;48.988;8.544;2023-02-04T19:41:42;24.65;;;10.15;;
23565;SDS011;22140;48.988;8.544;2023-02-04T19:46:45;40.03;;;16.27;;
23565;SDS011;22140;48.988;8.544;2023-02-04T19:51:47;30.70;;;12.35;;
23565;SDS011;22140;48.988;8.544;2023-02-04T19:56:51;27.73;;;9.90;;
23565;SDS011;22140;48.988;8.544;2023-02-04T20:07:13;24.35;;;9.68;;
23565;SDS011;22140;48.988;8.544;2023-02-04T20:12:14;21.50;;;9.03;;
23565;SDS011;22140;48.988;8.544;2023-02-04T20:17:31;29.65;;;10.45;;
23565;SDS011;22140;48.988;8.544;2023-02-04T20:22:37;33.67;;;11.57;;
23565;SDS011;22140;48.988;8.544;2023-02-04T20:27:40;37.58;;;13.63;;
23565;SDS011;22140;48.988;8.544;2023-02-04T20:32:42;26.63;;;10.68;;
23565;SDS011;22140;48.988;8.544;2023-02-04T20:37:47;30.20;;;10.50;;
23565;SDS011;22140;48.988;8.544;2023-02-04T20:43:02;24.48;;;10.50;;
23565;SDS011;22140;48.988;8.544;2023-02-04T20:58:23;24.83;;;10.25;;
23565;SDS011;22140;48.988;8.544;2023-02-04T21:03:26;26.77;;;11.33;;
23565;SDS011;22140;48.988;8.544;2023-02-04T21:13:29;28.43;;;11.07;;
23565;SDS011;22140;48.988;8.544;2023-02-04T21:18:30;26.55;;;11.00;;
23565;SDS011;22140;48.988;8.544;2023-02-04T21:23:35;28.98;;;11.10;;
23565;SDS011;22140;48.988;8.544;2023-02-04T21:28:36;30.23;;;9.73;;
23565;SDS011;22140;48.988;8.544;2023-02-04T21:33:38;32.08;;;10.73;;
23565;SDS011;22140;48.988;8.544;2023-02-04T21:38:39;28.17;;;9.40;;
23565;SDS011;22140;48.988;8.544;2023-02-04T21:43:41;26.77;;;10.20;;
23565;SDS011;22140;48.988;8.544;2023-02-04T21:48:43;27.65;;;10.65;;
23565;SDS011;22140;48.988;8.544;2023-02-04T21:53:44;22.13;;;9.60;;
23565;SDS011;22140;48.988;8.544;2023-02-04T21:58:45;24.00;;;9.98;;
23565;SDS011;22140;48.988;8.544;2023-02-04T22:03:47;27.03;;;9.40;;
23565;SDS011;22140;48.988;8.544;2023-02-04T22:08:48;28.08;;;10.07;;
23565;SDS011;22140;48.988;8.544;2023-02-04T22:13:49;24.30;;;9.20;;
23565;SDS011;22140;48.988;8.544;2023-02-04T22:18:51;28.23;;;9.37;;
23565;SDS011;22140;48.988;8.544;2023-02-04T22:23:52;26.02;;;9.98;;
23565;SDS011;22140;48.988;8.544;2023-02-04T22:28:53;24.10;;;9.77;;
23565;SDS011;22140;48.988;8.544;2023-02-04T22:33:55;23.33;;;8.60;;
23565;SDS011;22140;48.988;8.544;2023-02-04T22:38:56;24.10;;;8.88;;
23565;SDS011;22140;48.988;8.544;2023-02-04T22:43:57;25.23;;;9.67;;
23565;SDS011;22140;48.988;8.544;2023-02-04T22:48:59;22.38;;;9.60;;
23565;SDS011;22140;48.988;8.544;2023-02-04T22:54:00;26.87;;;10.23;;
23565;SDS011;22140;48.988;8.544;2023-02-04T22:59:01;27.45;;;11.10;;
23565;SDS011;22140;48.988;8.544;2023-02-04T23:04:03;26.33;;;9.85;;
23565;SDS011;22140;48.988;8.544;2023-02-04T23:09:04;21.63;;;9.17;;
23565;SDS011;22140;48.988;8.544;2023-02-04T23:14:05;23.67;;;10.13;;
23565;SDS011;22140;48.988;8.544;2023-02-04T23:19:07;24.70;;;9.90;;
23565;SDS011;22140;48.988;8.544;2023-02-04T23:24:08;23.42;;;9.40;;
23565;SDS011;22140;48.988;8.544;2023-02-04T23:29:09;19.88;;;9.13;;
23565;SDS011;22140;48.988;8.544;2023-02-04T23:34:11;22.47;;;9.83;;
23565;SDS011;22140;48.988;8.544;2023-02-04T23:39:12;28.83;;;10.13;;
23565;SDS011;22140;48.988;8.544;2023-02-04T23:44:13;18.23;;;7.87;;
23565;SDS011;22140;48.988;8.544;2023-02-04T23:49:15;18.95;;;7.28;;
23565;SDS011;22140;48.988;8.544;2023-02-04T23:54:16;22.45;;;8.80;;
23565;SDS011;22140;48.988;8.544;2023-02-04T23:59:17;29.43;;;10.00;;
